sensor_id;sensor_type;location;lat;lon;timestamp;temperature;humidity
78571;SHT31;67861;51.966;5.672;2023-12-14T00:02:18;10.2;68.0
78571;SHT31;67861;51.966;5.672;2023-12-14T00:04:46;10.2;68.5
78571;SHT31;67861;51.966;5.672;2023-12-14T00:07:15;10.1;68.3
78571;SHT31;67861;51.966;5.672;2023-12-14T00:09:44;10.1;68.4
78571;SHT31;67861;51.966;5.672;2023-12-14T00:12:12;10.1;68.5
78571;SHT31;67861;51.966;5.672;2023-12-14T00:14:41;10.1;68.7
78571;SHT31;67861;51.966;5.672;2023-12-14T00:17:10;10.1;68.9
78571;SHT31;67861;51.966;5.672;2023-12-14T00:19:38;10.1;69.2
78571;SHT31;67861;51.966;5.672;2023-12-14T00:22:10;10.1;69.1
78571;SHT31;67861;51.966;5.672;2023-12-14T00:24:39;10.0;69.1
78571;SHT31;67861;51.966;5.672;2023-12-14T00:27:08;10.0;69.2
78571;SHT31;67861;51.966;5.672;2023-12-14T00:29:37;10.0;69.1
78571;SHT31;67861;51.966;5.672;2023-12-14T00:32:06;10.0;69.3
78571;SHT31;67861;51.966;5.672;2023-12-14T00:34:36;9.9;69.1
78571;SHT31;67861;51.966;5.672;2023-12-14T00:37:05;9.9;69.4
78571;SHT31;67861;51.966;5.672;2023-12-14T00:39:34;9.9;69.3
78571;SHT31;67861;51.966;5.672;2023-12-14T00:42:02;9.9;69.6
78571;SHT31;67861;51.966;5.672;2023-12-14T00:44:31;9.8;69.7
78571;SHT31;67861;51.966;5.672;2023-12-14T00:46:59;9.8;70.1
78571;SHT31;67861;51.966;5.672;2023-12-14T00:49:29;9.8;69.8
78571;SHT31;67861;51.966;5.672;2023-12-14T00:51:57;9.8;69.8
78571;SHT31;67861;51.966;5.672;2023-12-14T00:54:26;9.8;69.6
78571;SHT31;67861;51.966;5.672;2023-12-14T00:56:54;9.8;69.2
78571;SHT31;67861;51.966;5.672;2023-12-14T00:59:23;9.8;69.2
78571;SHT31;67861;51.966;5.672;2023-12-14T01:01:51;9.8;69.4
78571;SHT31;67861;51.966;5.672;2023-12-14T01:04:20;9.7;69.2
78571;SHT31;67861;51.966;5.672;2023-12-14T01:06:48;9.7;68.9
78571;SHT31;67861;51.966;5.672;2023-12-14T01:09:19;9.7;68.7
78571;SHT31;67861;51.966;5.672;2023-12-14T01:11:49;9.7;68.3
78571;SHT31;67861;51.966;5.672;2023-12-14T01:14:18;9.7;68.5
78571;SHT31;67861;51.966;5.672;2023-12-14T01:16:47;9.7;68.3
78571;SHT31;67861;51.966;5.672;2023-12-14T01:19:15;9.6;68.7
78571;SHT31;67861;51.966;5.672;2023-12-14T01:21:44;9.6;68.9
78571;SHT31;67861;51.966;5.672;2023-12-14T01:24:12;9.6;68.8
78571;SHT31;67861;51.966;5.672;2023-12-14T01:26:42;9.6;69.0
78571;SHT31;67861;51.966;5.672;2023-12-14T01:29:10;9.6;68.4
78571;SHT31;67861;51.966;5.672;2023-12-14T01:31:39;9.7;68.1
78571;SHT31;67861;51.966;5.672;2023-12-14T01:34:08;9.7;68.3
78571;SHT31;67861;51.966;5.672;2023-12-14T01:36:40;9.7;69.0
78571;SHT31;67861;51.966;5.672;2023-12-14T01:39:09;9.7;68.6
78571;SHT31;67861;51.966;5.672;2023-12-14T01:41:38;9.7;67.9
78571;SHT31;67861;51.966;5.672;2023-12-14T01:44:08;9.7;68.5
78571;SHT31;67861;51.966;5.672;2023-12-14T01:46:37;9.8;68.3
78571;SHT31;67861;51.966;5.672;2023-12-14T01:49:05;9.8;68.0
78571;SHT31;67861;51.966;5.672;2023-12-14T01:51:34;9.8;67.3
78571;SHT31;67861;51.966;5.672;2023-12-14T01:54:02;9.8;67.3
78571;SHT31;67861;51.966;5.672;2023-12-14T01:56:31;9.8;67.9
78571;SHT31;67861;51.966;5.672;2023-12-14T01:58:59;9.7;67.7
78571;SHT31;67861;51.966;5.672;2023-12-14T02:01:36;9.7;67.3
78571;SHT31;67861;51.966;5.672;2023-12-14T02:04:07;9.7;67.6
78571;SHT31;67861;51.966;5.672;2023-12-14T02:06:36;9.7;67.7
78571;SHT31;67861;51.966;5.672;2023-12-14T02:09:05;9.7;67.9
78571;SHT31;67861;51.966;5.672;2023-12-14T02:11:34;9.7;68.0
78571;SHT31;67861;51.966;5.672;2023-12-14T02:14:05;9.7;67.7
78571;SHT31;67861;51.966;5.672;2023-12-14T02:16:34;9.8;68.2
78571;SHT31;67861;51.966;5.672;2023-12-14T02:19:05;9.8;67.9
78571;SHT31;67861;51.966;5.672;2023-12-14T02:21:33;9.8;66.8
78571;SHT31;67861;51.966;5.672;2023-12-14T02:24:02;9.8;66.7
78571;SHT31;67861;51.966;5.672;2023-12-14T02:26:31;9.8;66.9
78571;SHT31;67861;51.966;5.672;2023-12-14T02:29:00;9.8;66.9
78571;SHT31;67861;51.966;5.672;2023-12-14T02:31:28;9.8;66.6
78571;SHT31;67861;51.966;5.672;2023-12-14T02:33:57;9.8;67.4
78571;SHT31;67861;51.966;5.672;2023-12-14T02:36:26;9.8;66.6
78571;SHT31;67861;51.966;5.672;2023-12-14T02:38:54;9.8;66.6
78571;SHT31;67861;51.966;5.672;2023-12-14T02:41:23;9.8;66.2
78571;SHT31;67861;51.966;5.672;2023-12-14T02:43:51;9.8;66.3
78571;SHT31;67861;51.966;5.672;2023-12-14T02:46:20;9.8;66.4
78571;SHT31;67861;51.966;5.672;2023-12-14T02:48:48;9.8;66.5
78571;SHT31;67861;51.966;5.672;2023-12-14T02:51:17;9.8;66.3
78571;SHT31;67861;51.966;5.672;2023-12-14T02:53:45;9.7;66.0
78571;SHT31;67861;51.966;5.672;2023-12-14T02:56:14;9.7;65.8
78571;SHT31;67861;51.966;5.672;2023-12-14T02:58:43;9.7;66.0
78571;SHT31;67861;51.966;5.672;2023-12-14T03:01:15;9.7;66.3
78571;SHT31;67861;51.966;5.672;2023-12-14T03:03:44;9.7;66.2
78571;SHT31;67861;51.966;5.672;2023-12-14T03:06:12;9.6;66.2
78571;SHT31;67861;51.966;5.672;2023-12-14T03:08:41;9.6;66.5
78571;SHT31;67861;51.966;5.672;2023-12-14T03:11:10;9.6;66.7
78571;SHT31;67861;51.966;5.672;2023-12-14T03:13:38;9.6;67.2
78571;SHT31;67861;51.966;5.672;2023-12-14T03:16:10;9.6;66.8
78571;SHT31;67861;51.966;5.672;2023-12-14T03:18:39;9.6;66.9
78571;SHT31;67861;51.966;5.672;2023-12-14T03:21:10;9.6;67.2
78571;SHT31;67861;51.966;5.672;2023-12-14T03:23:39;9.6;67.1
78571;SHT31;67861;51.966;5.672;2023-12-14T03:26:08;9.6;66.9
78571;SHT31;67861;51.966;5.672;2023-12-14T03:28:37;9.6;66.7
78571;SHT31;67861;51.966;5.672;2023-12-14T03:31:05;9.6;66.5
78571;SHT31;67861;51.966;5.672;2023-12-14T03:33:36;9.6;66.3
78571;SHT31;67861;51.966;5.672;2023-12-14T03:36:08;9.6;67.2
78571;SHT31;67861;51.966;5.672;2023-12-14T03:38:38;9.6;66.7
78571;SHT31;67861;51.966;5.672;2023-12-14T03:41:07;9.7;66.3
78571;SHT31;67861;51.966;5.672;2023-12-14T03:43:36;9.7;66.4
78571;SHT31;67861;51.966;5.672;2023-12-14T03:46:05;9.7;66.3
78571;SHT31;67861;51.966;5.672;2023-12-14T03:48:35;9.7;66.5
78571;SHT31;67861;51.966;5.672;2023-12-14T03:51:05;9.7;66.3
78571;SHT31;67861;51.966;5.672;2023-12-14T03:53:34;9.7;66.1
78571;SHT31;67861;51.966;5.672;2023-12-14T03:56:06;9.7;66.4
78571;SHT31;67861;51.966;5.672;2023-12-14T03:58:37;9.7;66.4
78571;SHT31;67861;51.966;5.672;2023-12-14T04:01:10;9.7;66.7
78571;SHT31;67861;51.966;5.672;2023-12-14T04:03:47;9.7;66.1
78571;SHT31;67861;51.966;5.672;2023-12-14T04:06:21;9.7;66.0
78571;SHT31;67861;51.966;5.672;2023-12-14T04:08:52;9.7;66.5
78571;SHT31;67861;51.966;5.672;2023-12-14T04:11:22;9.7;66.6
78571;SHT31;67861;51.966;5.672;2023-12-14T04:13:52;9.7;66.7
78571;SHT31;67861;51.966;5.672;2023-12-14T04:16:23;9.7;66.4
78571;SHT31;67861;51.966;5.672;2023-12-14T04:18:54;9.7;66.7
78571;SHT31;67861;51.966;5.672;2023-12-14T04:21:23;9.7;66.3
78571;SHT31;67861;51.966;5.672;2023-12-14T04:23:52;9.7;65.7
78571;SHT31;67861;51.966;5.672;2023-12-14T04:26:21;9.7;66.1
78571;SHT31;67861;51.966;5.672;2023-12-14T04:28:52;9.7;65.8
78571;SHT31;67861;51.966;5.672;2023-12-14T04:31:21;9.7;66.5
78571;SHT31;67861;51.966;5.672;2023-12-14T04:33:51;9.7;66.6
78571;SHT31;67861;51.966;5.672;2023-12-14T04:36:20;9.7;66.5
78571;SHT31;67861;51.966;5.672;2023-12-14T04:38:51;9.7;65.9
78571;SHT31;67861;51.966;5.672;2023-12-14T04:41:23;9.7;65.2
78571;SHT31;67861;51.966;5.672;2023-12-14T04:43:52;9.6;65.5
78571;SHT31;67861;51.966;5.672;2023-12-14T04:46:20;9.6;65.7
78571;SHT31;67861;51.966;5.672;2023-12-14T04:48:49;9.6;65.7
78571;SHT31;67861;51.966;5.672;2023-12-14T04:51:17;9.6;66.0
78571;SHT31;67861;51.966;5.672;2023-12-14T04:53:47;9.6;65.9
78571;SHT31;67861;51.966;5.672;2023-12-14T04:56:16;9.6;65.3
78571;SHT31;67861;51.966;5.672;2023-12-14T04:58:46;9.6;65.4
78571;SHT31;67861;51.966;5.672;2023-12-14T05:01:18;9.6;65.4
78571;SHT31;67861;51.966;5.672;2023-12-14T05:03:47;9.6;65.2
78571;SHT31;67861;51.966;5.672;2023-12-14T05:06:18;9.6;66.2
78571;SHT31;67861;51.966;5.672;2023-12-14T05:08:47;9.6;66.2
78571;SHT31;67861;51.966;5.672;2023-12-14T05:11:16;9.6;65.8
78571;SHT31;67861;51.966;5.672;2023-12-14T05:13:45;9.6;65.6
78571;SHT31;67861;51.966;5.672;2023-12-14T05:16:16;9.6;66.0
78571;SHT31;67861;51.966;5.672;2023-12-14T05:18:45;9.5;65.5
78571;SHT31;67861;51.966;5.672;2023-12-14T05:21:18;9.5;65.6
78571;SHT31;67861;51.966;5.672;2023-12-14T05:23:47;9.5;65.4
78571;SHT31;67861;51.966;5.672;2023-12-14T05:26:15;9.5;65.6
78571;SHT31;67861;51.966;5.672;2023-12-14T05:28:45;9.5;65.5
78571;SHT31;67861;51.966;5.672;2023-12-14T05:31:13;9.5;65.5
78571;SHT31;67861;51.966;5.672;2023-12-14T05:33:42;9.5;65.4
78571;SHT31;67861;51.966;5.672;2023-12-14T05:36:12;9.5;65.4
78571;SHT31;67861;51.966;5.672;2023-12-14T05:38:42;9.6;65.8
78571;SHT31;67861;51.966;5.672;2023-12-14T05:41:10;9.6;65.5
78571;SHT31;67861;51.966;5.672;2023-12-14T05:43:39;9.6;65.3
78571;SHT31;67861;51.966;5.672;2023-12-14T05:46:08;9.6;65.2
78571;SHT31;67861;51.966;5.672;2023-12-14T05:48:37;9.6;65.1
78571;SHT31;67861;51.966;5.672;2023-12-14T05:51:09;9.6;65.7
78571;SHT31;67861;51.966;5.672;2023-12-14T05:53:37;9.6;65.2
78571;SHT31;67861;51.966;5.672;2023-12-14T05:56:06;9.6;64.8
78571;SHT31;67861;51.966;5.672;2023-12-14T05:58:36;9.6;64.8
78571;SHT31;67861;51.966;5.672;2023-12-14T06:01:05;9.6;65.4
78571;SHT31;67861;51.966;5.672;2023-12-14T06:03:35;9.6;64.7
78571;SHT31;67861;51.966;5.672;2023-12-14T06:06:03;9.6;64.2
78571;SHT31;67861;51.966;5.672;2023-12-14T06:08:32;9.6;64.7
78571;SHT31;67861;51.966;5.672;2023-12-14T06:11:01;9.6;64.7
78571;SHT31;67861;51.966;5.672;2023-12-14T06:13:34;9.6;64.8
78571;SHT31;67861;51.966;5.672;2023-12-14T06:16:05;9.6;64.7
78571;SHT31;67861;51.966;5.672;2023-12-14T06:18:41;9.6;65.1
78571;SHT31;67861;51.966;5.672;2023-12-14T06:21:11;9.6;64.3
78571;SHT31;67861;51.966;5.672;2023-12-14T06:23:40;9.6;65.2
78571;SHT31;67861;51.966;5.672;2023-12-14T06:26:10;9.6;64.6
78571;SHT31;67861;51.966;5.672;2023-12-14T06:28:39;9.6;64.6
78571;SHT31;67861;51.966;5.672;2023-12-14T06:31:11;9.6;64.6
78571;SHT31;67861;51.966;5.672;2023-12-14T06:33:40;9.6;64.4
78571;SHT31;67861;51.966;5.672;2023-12-14T06:36:10;9.6;63.8
78571;SHT31;67861;51.966;5.672;2023-12-14T06:38:40;9.5;64.3
78571;SHT31;67861;51.966;5.672;2023-12-14T06:41:23;9.5;64.5
78571;SHT31;67861;51.966;5.672;2023-12-14T06:43:54;9.5;64.4
78571;SHT31;67861;51.966;5.672;2023-12-14T06:46:24;9.5;64.1
78571;SHT31;67861;51.966;5.672;2023-12-14T06:48:57;9.5;63.7
78571;SHT31;67861;51.966;5.672;2023-12-14T06:51:28;9.5;63.4
78571;SHT31;67861;51.966;5.672;2023-12-14T06:53:57;9.5;63.4
78571;SHT31;67861;51.966;5.672;2023-12-14T06:56:30;9.4;63.7
78571;SHT31;67861;51.966;5.672;2023-12-14T06:59:01;9.4;63.3
78571;SHT31;67861;51.966;5.672;2023-12-14T07:01:31;9.4;63.4
78571;SHT31;67861;51.966;5.672;2023-12-14T07:04:01;9.4;63.0
78571;SHT31;67861;51.966;5.672;2023-12-14T07:06:33;9.3;63.2
78571;SHT31;67861;51.966;5.672;2023-12-14T07:09:03;9.3;63.0
78571;SHT31;67861;51.966;5.672;2023-12-14T07:11:32;9.3;63.1
78571;SHT31;67861;51.966;5.672;2023-12-14T07:14:00;9.3;64.1
78571;SHT31;67861;51.966;5.672;2023-12-14T07:16:29;9.3;63.8
78571;SHT31;67861;51.966;5.672;2023-12-14T07:18:58;9.3;63.7
78571;SHT31;67861;51.966;5.672;2023-12-14T07:21:27;9.3;64.2
78571;SHT31;67861;51.966;5.672;2023-12-14T07:23:57;9.3;63.9
78571;SHT31;67861;51.966;5.672;2023-12-14T07:26:25;9.3;62.9
78571;SHT31;67861;51.966;5.672;2023-12-14T07:28:54;9.3;64.0
78571;SHT31;67861;51.966;5.672;2023-12-14T07:31:23;9.4;63.3
78571;SHT31;67861;51.966;5.672;2023-12-14T07:33:51;9.4;62.9
78571;SHT31;67861;51.966;5.672;2023-12-14T07:36:20;9.4;63.4
78571;SHT31;67861;51.966;5.672;2023-12-14T07:38:49;9.3;63.8
78571;SHT31;67861;51.966;5.672;2023-12-14T07:41:17;9.3;63.0
78571;SHT31;67861;51.966;5.672;2023-12-14T07:43:45;9.3;64.3
78571;SHT31;67861;51.966;5.672;2023-12-14T07:46:14;9.3;62.9
78571;SHT31;67861;51.966;5.672;2023-12-14T07:48:42;9.3;61.8
78571;SHT31;67861;51.966;5.672;2023-12-14T07:51:11;9.3;63.2
78571;SHT31;67861;51.966;5.672;2023-12-14T07:53:40;9.2;61.8
78571;SHT31;67861;51.966;5.672;2023-12-14T07:56:09;9.2;61.8
78571;SHT31;67861;51.966;5.672;2023-12-14T07:58:37;9.2;62.4
78571;SHT31;67861;51.966;5.672;2023-12-14T08:01:08;9.1;62.8
78571;SHT31;67861;51.966;5.672;2023-12-14T08:03:37;9.1;61.9
78571;SHT31;67861;51.966;5.672;2023-12-14T08:06:06;9.1;61.1
78571;SHT31;67861;51.966;5.672;2023-12-14T08:08:35;9.0;61.6
78571;SHT31;67861;51.966;5.672;2023-12-14T08:11:04;9.0;62.6
78571;SHT31;67861;51.966;5.672;2023-12-14T08:13:34;9.0;63.1
78571;SHT31;67861;51.966;5.672;2023-12-14T08:16:02;9.0;62.6
78571;SHT31;67861;51.966;5.672;2023-12-14T08:18:31;9.0;62.7
78571;SHT31;67861;51.966;5.672;2023-12-14T08:20:59;8.9;62.8
78571;SHT31;67861;51.966;5.672;2023-12-14T08:23:28;8.9;62.0
78571;SHT31;67861;51.966;5.672;2023-12-14T08:25:59;8.9;62.9
78571;SHT31;67861;51.966;5.672;2023-12-14T08:28:27;8.9;62.4
78571;SHT31;67861;51.966;5.672;2023-12-14T08:30:56;8.9;62.3
78571;SHT31;67861;51.966;5.672;2023-12-14T08:33:28;8.9;62.8
78571;SHT31;67861;51.966;5.672;2023-12-14T08:35:57;8.9;62.5
78571;SHT31;67861;51.966;5.672;2023-12-14T08:38:26;8.9;61.6
78571;SHT31;67861;51.966;5.672;2023-12-14T08:40:56;9.0;61.8
78571;SHT31;67861;51.966;5.672;2023-12-14T08:43:25;9.0;62.3
78571;SHT31;67861;51.966;5.672;2023-12-14T08:45:54;9.0;62.5
78571;SHT31;67861;51.966;5.672;2023-12-14T08:48:22;9.0;62.8
78571;SHT31;67861;51.966;5.672;2023-12-14T08:50:53;9.0;62.8
78571;SHT31;67861;51.966;5.672;2023-12-14T08:53:22;9.0;63.0
78571;SHT31;67861;51.966;5.672;2023-12-14T08:55:52;9.0;62.6
78571;SHT31;67861;51.966;5.672;2023-12-14T08:58:21;9.0;62.0
78571;SHT31;67861;51.966;5.672;2023-12-14T09:00:49;9.0;62.3
78571;SHT31;67861;51.966;5.672;2023-12-14T09:03:19;9.0;62.1
78571;SHT31;67861;51.966;5.672;2023-12-14T09:05:48;9.1;61.4
78571;SHT31;67861;51.966;5.672;2023-12-14T09:08:17;9.1;61.2
78571;SHT31;67861;51.966;5.672;2023-12-14T09:10:45;9.1;61.6
78571;SHT31;67861;51.966;5.672;2023-12-14T09:13:13;9.1;61.4
78571;SHT31;67861;51.966;5.672;2023-12-14T09:15:44;9.1;62.5
78571;SHT31;67861;51.966;5.672;2023-12-14T09:18:12;9.1;62.9
78571;SHT31;67861;51.966;5.672;2023-12-14T09:20:41;9.1;61.8
78571;SHT31;67861;51.966;5.672;2023-12-14T09:23:09;9.1;61.9
78571;SHT31;67861;51.966;5.672;2023-12-14T09:25:38;9.1;61.7
78571;SHT31;67861;51.966;5.672;2023-12-14T09:28:06;9.1;62.2
78571;SHT31;67861;51.966;5.672;2023-12-14T09:30:35;9.1;61.5
78571;SHT31;67861;51.966;5.672;2023-12-14T09:33:06;9.1;61.8
78571;SHT31;67861;51.966;5.672;2023-12-14T09:35:36;9.1;61.2
78571;SHT31;67861;51.966;5.672;2023-12-14T09:38:06;9.2;61.1
78571;SHT31;67861;51.966;5.672;2023-12-14T09:40:35;9.2;62.3
78571;SHT31;67861;51.966;5.672;2023-12-14T09:43:04;9.2;61.6
78571;SHT31;67861;51.966;5.672;2023-12-14T09:45:36;9.2;62.4
78571;SHT31;67861;51.966;5.672;2023-12-14T09:48:10;9.2;61.0
78571;SHT31;67861;51.966;5.672;2023-12-14T09:50:39;9.3;61.4
78571;SHT31;67861;51.966;5.672;2023-12-14T09:53:08;9.3;61.1
78571;SHT31;67861;51.966;5.672;2023-12-14T09:55:39;9.3;60.5
78571;SHT31;67861;51.966;5.672;2023-12-14T09:58:07;9.3;60.6
78571;SHT31;67861;51.966;5.672;2023-12-14T10:00:38;9.3;60.0
78571;SHT31;67861;51.966;5.672;2023-12-14T10:03:21;9.3;61.3
78571;SHT31;67861;51.966;5.672;2023-12-14T10:05:50;9.3;61.5
78571;SHT31;67861;51.966;5.672;2023-12-14T10:08:18;9.4;61.4
78571;SHT31;67861;51.966;5.672;2023-12-14T10:10:51;9.4;61.2
78571;SHT31;67861;51.966;5.672;2023-12-14T10:13:37;9.4;59.8
78571;SHT31;67861;51.966;5.672;2023-12-14T10:16:06;9.4;61.3
78571;SHT31;67861;51.966;5.672;2023-12-14T10:18:35;9.4;61.2
78571;SHT31;67861;51.966;5.672;2023-12-14T10:21:05;9.4;62.1
78571;SHT31;67861;51.966;5.672;2023-12-14T10:23:35;9.4;61.6
78571;SHT31;67861;51.966;5.672;2023-12-14T10:26:04;9.4;60.7
78571;SHT31;67861;51.966;5.672;2023-12-14T10:28:33;9.4;61.7
78571;SHT31;67861;51.966;5.672;2023-12-14T10:31:01;9.4;60.7
78571;SHT31;67861;51.966;5.672;2023-12-14T10:33:31;9.4;60.6
78571;SHT31;67861;51.966;5.672;2023-12-14T10:36:00;9.4;59.8
78571;SHT31;67861;51.966;5.672;2023-12-14T10:38:29;9.4;60.5
78571;SHT31;67861;51.966;5.672;2023-12-14T10:41:00;9.4;61.1
78571;SHT31;67861;51.966;5.672;2023-12-14T10:43:30;9.4;62.2
78571;SHT31;67861;51.966;5.672;2023-12-14T10:46:01;9.4;61.2
78571;SHT31;67861;51.966;5.672;2023-12-14T10:48:31;9.4;62.1
78571;SHT31;67861;51.966;5.672;2023-12-14T10:51:01;9.5;62.2
78571;SHT31;67861;51.966;5.672;2023-12-14T10:53:32;9.5;61.5
78571;SHT31;67861;51.966;5.672;2023-12-14T10:56:03;9.5;60.1
78571;SHT31;67861;51.966;5.672;2023-12-14T10:58:46;9.5;61.5
78571;SHT31;67861;51.966;5.672;2023-12-14T11:01:18;9.5;61.7
78571;SHT31;67861;51.966;5.672;2023-12-14T11:03:48;9.6;62.4
78571;SHT31;67861;51.966;5.672;2023-12-14T11:06:27;9.6;61.8
78571;SHT31;67861;51.966;5.672;2023-12-14T11:08:59;9.6;62.3
78571;SHT31;67861;51.966;5.672;2023-12-14T11:11:42;9.6;61.7
78571;SHT31;67861;51.966;5.672;2023-12-14T11:14:12;9.6;62.1
78571;SHT31;67861;51.966;5.672;2023-12-14T11:16:45;9.6;61.6
78571;SHT31;67861;51.966;5.672;2023-12-14T11:19:29;9.7;61.8
78571;SHT31;67861;51.966;5.672;2023-12-14T11:22:30;9.7;60.9
78571;SHT31;67861;51.966;5.672;2023-12-14T11:24:59;9.7;60.4
78571;SHT31;67861;51.966;5.672;2023-12-14T11:27:30;9.7;61.3
78571;SHT31;67861;51.966;5.672;2023-12-14T11:30:00;9.7;62.5
78571;SHT31;67861;51.966;5.672;2023-12-14T11:32:30;9.7;62.4
78571;SHT31;67861;51.966;5.672;2023-12-14T11:35:00;9.8;62.0
78571;SHT31;67861;51.966;5.672;2023-12-14T11:37:29;9.8;61.0
78571;SHT31;67861;51.966;5.672;2023-12-14T11:40:01;9.8;61.5
78571;SHT31;67861;51.966;5.672;2023-12-14T11:42:31;9.8;60.7
78571;SHT31;67861;51.966;5.672;2023-12-14T11:45:00;9.8;60.6
78571;SHT31;67861;51.966;5.672;2023-12-14T11:47:29;9.8;60.5
78571;SHT31;67861;51.966;5.672;2023-12-14T11:50:00;9.8;60.8
78571;SHT31;67861;51.966;5.672;2023-12-14T11:52:30;9.8;60.9
78571;SHT31;67861;51.966;5.672;2023-12-14T11:54:58;9.8;62.6
78571;SHT31;67861;51.966;5.672;2023-12-14T11:57:30;9.8;62.3
78571;SHT31;67861;51.966;5.672;2023-12-14T11:59:59;9.8;61.5
78571;SHT31;67861;51.966;5.672;2023-12-14T12:02:29;9.9;61.7
78571;SHT31;67861;51.966;5.672;2023-12-14T12:04:58;9.9;59.7
78571;SHT31;67861;51.966;5.672;2023-12-14T12:07:27;9.9;60.4
78571;SHT31;67861;51.966;5.672;2023-12-14T12:09:55;10.0;62.2
78571;SHT31;67861;51.966;5.672;2023-12-14T12:12:24;10.0;60.7
78571;SHT31;67861;51.966;5.672;2023-12-14T12:14:52;10.0;59.1
78571;SHT31;67861;51.966;5.672;2023-12-14T12:17:21;10.1;60.2
78571;SHT31;67861;51.966;5.672;2023-12-14T12:19:49;10.1;61.8
78571;SHT31;67861;51.966;5.672;2023-12-14T12:22:18;10.1;61.3
78571;SHT31;67861;51.966;5.672;2023-12-14T12:24:46;10.1;60.7
78571;SHT31;67861;51.966;5.672;2023-12-14T12:27:15;10.2;61.8
78571;SHT31;67861;51.966;5.672;2023-12-14T12:29:43;10.2;60.6
78571;SHT31;67861;51.966;5.672;2023-12-14T12:32:12;10.3;59.6
78571;SHT31;67861;51.966;5.672;2023-12-14T12:34:40;10.3;58.9
78571;SHT31;67861;51.966;5.672;2023-12-14T12:37:09;10.3;58.6
78571;SHT31;67861;51.966;5.672;2023-12-14T12:39:37;10.3;59.2
78571;SHT31;67861;51.966;5.672;2023-12-14T12:42:07;10.4;59.8
78571;SHT31;67861;51.966;5.672;2023-12-14T12:44:35;10.4;60.2
78571;SHT31;67861;51.966;5.672;2023-12-14T12:47:04;10.4;60.0
78571;SHT31;67861;51.966;5.672;2023-12-14T12:49:32;10.4;59.9
78571;SHT31;67861;51.966;5.672;2023-12-14T12:52:01;10.4;60.7
78571;SHT31;67861;51.966;5.672;2023-12-14T12:54:31;10.4;61.2
78571;SHT31;67861;51.966;5.672;2023-12-14T12:57:00;10.4;59.1
78571;SHT31;67861;51.966;5.672;2023-12-14T12:59:28;10.4;59.2
78571;SHT31;67861;51.966;5.672;2023-12-14T13:01:57;10.4;59.7
78571;SHT31;67861;51.966;5.672;2023-12-14T13:04:25;10.4;59.3
78571;SHT31;67861;51.966;5.672;2023-12-14T13:06:56;10.4;58.8
78571;SHT31;67861;51.966;5.672;2023-12-14T13:09:28;10.4;59.7
78571;SHT31;67861;51.966;5.672;2023-12-14T13:11:57;10.4;58.6
78571;SHT31;67861;51.966;5.672;2023-12-14T13:14:25;10.4;59.8
78571;SHT31;67861;51.966;5.672;2023-12-14T13:16:53;10.4;58.4
78571;SHT31;67861;51.966;5.672;2023-12-14T13:19:23;10.5;59.0
78571;SHT31;67861;51.966;5.672;2023-12-14T13:21:52;10.5;59.1
78571;SHT31;67861;51.966;5.672;2023-12-14T13:24:23;10.5;58.5
78571;SHT31;67861;51.966;5.672;2023-12-14T13:26:52;10.5;58.6
78571;SHT31;67861;51.966;5.672;2023-12-14T13:29:20;10.5;59.8
78571;SHT31;67861;51.966;5.672;2023-12-14T13:31:49;10.5;59.4
78571;SHT31;67861;51.966;5.672;2023-12-14T13:34:17;10.5;58.8
78571;SHT31;67861;51.966;5.672;2023-12-14T13:36:46;10.5;59.7
78571;SHT31;67861;51.966;5.672;2023-12-14T13:39:14;10.5;59.5
78571;SHT31;67861;51.966;5.672;2023-12-14T13:41:45;10.5;58.0
78571;SHT31;67861;51.966;5.672;2023-12-14T13:44:14;10.5;58.7
78571;SHT31;67861;51.966;5.672;2023-12-14T13:46:42;10.5;59.3
78571;SHT31;67861;51.966;5.672;2023-12-14T13:49:11;10.5;59.6
78571;SHT31;67861;51.966;5.672;2023-12-14T13:51:39;10.5;60.2
78571;SHT31;67861;51.966;5.672;2023-12-14T13:54:08;10.5;59.1
78571;SHT31;67861;51.966;5.672;2023-12-14T13:56:37;10.5;59.0
78571;SHT31;67861;51.966;5.672;2023-12-14T13:59:05;10.5;59.4
78571;SHT31;67861;51.966;5.672;2023-12-14T14:01:33;10.4;60.1
78571;SHT31;67861;51.966;5.672;2023-12-14T14:04:02;10.4;60.2
78571;SHT31;67861;51.966;5.672;2023-12-14T14:06:33;10.4;60.3
78571;SHT31;67861;51.966;5.672;2023-12-14T14:09:02;10.4;61.0
78571;SHT31;67861;51.966;5.672;2023-12-14T14:11:31;10.4;60.8
78571;SHT31;67861;51.966;5.672;2023-12-14T14:14:01;10.4;60.0
78571;SHT31;67861;51.966;5.672;2023-12-14T14:16:30;10.4;59.8
78571;SHT31;67861;51.966;5.672;2023-12-14T14:18:59;10.4;60.0
78571;SHT31;67861;51.966;5.672;2023-12-14T14:21:28;10.4;60.5
78571;SHT31;67861;51.966;5.672;2023-12-14T14:23:58;10.4;60.7
78571;SHT31;67861;51.966;5.672;2023-12-14T14:26:28;10.4;60.0
78571;SHT31;67861;51.966;5.672;2023-12-14T14:28:57;10.4;60.3
78571;SHT31;67861;51.966;5.672;2023-12-14T14:31:28;10.5;60.4
78571;SHT31;67861;51.966;5.672;2023-12-14T14:33:58;10.5;59.1
78571;SHT31;67861;51.966;5.672;2023-12-14T14:36:27;10.5;60.2
78571;SHT31;67861;51.966;5.672;2023-12-14T14:38:56;10.5;59.9
78571;SHT31;67861;51.966;5.672;2023-12-14T14:41:24;10.5;60.1
78571;SHT31;67861;51.966;5.672;2023-12-14T14:43:53;10.5;59.7
78571;SHT31;67861;51.966;5.672;2023-12-14T14:46:23;10.5;60.0
78571;SHT31;67861;51.966;5.672;2023-12-14T14:48:52;10.5;60.2
78571;SHT31;67861;51.966;5.672;2023-12-14T14:51:21;10.6;59.9
78571;SHT31;67861;51.966;5.672;2023-12-14T14:53:51;10.6;59.9
78571;SHT31;67861;51.966;5.672;2023-12-14T14:56:20;10.6;59.7
78571;SHT31;67861;51.966;5.672;2023-12-14T14:58:49;10.6;59.2
78571;SHT31;67861;51.966;5.672;2023-12-14T15:01:17;10.6;59.5
78571;SHT31;67861;51.966;5.672;2023-12-14T15:03:47;10.6;59.0
78571;SHT31;67861;51.966;5.672;2023-12-14T15:06:16;10.6;59.1
78571;SHT31;67861;51.966;5.672;2023-12-14T15:08:46;10.6;59.4
78571;SHT31;67861;51.966;5.672;2023-12-14T15:11:15;10.6;59.7
78571;SHT31;67861;51.966;5.672;2023-12-14T15:13:43;10.6;59.9
78571;SHT31;67861;51.966;5.672;2023-12-14T15:16:12;10.6;59.7
78571;SHT31;67861;51.966;5.672;2023-12-14T15:18:40;10.6;60.1
78571;SHT31;67861;51.966;5.672;2023-12-14T15:21:09;10.5;60.0
78571;SHT31;67861;51.966;5.672;2023-12-14T15:23:38;10.5;60.5
78571;SHT31;67861;51.966;5.672;2023-12-14T15:26:08;10.5;60.1
78571;SHT31;67861;51.966;5.672;2023-12-14T15:28:37;10.5;60.0
78571;SHT31;67861;51.966;5.672;2023-12-14T15:31:05;10.5;60.2
78571;SHT31;67861;51.966;5.672;2023-12-14T15:33:34;10.5;60.2
78571;SHT31;67861;51.966;5.672;2023-12-14T15:36:02;10.5;60.1
78571;SHT31;67861;51.966;5.672;2023-12-14T15:38:31;10.5;60.2
78571;SHT31;67861;51.966;5.672;2023-12-14T15:41:00;10.4;60.3
78571;SHT31;67861;51.966;5.672;2023-12-14T15:43:28;10.4;60.4
78571;SHT31;67861;51.966;5.672;2023-12-14T15:45:57;10.4;60.6
78571;SHT31;67861;51.966;5.672;2023-12-14T15:48:25;10.4;60.6
78571;SHT31;67861;51.966;5.672;2023-12-14T15:50:54;10.4;60.8
78571;SHT31;67861;51.966;5.672;2023-12-14T15:53:22;10.5;60.5
78571;SHT31;67861;51.966;5.672;2023-12-14T15:55:50;10.4;60.3
78571;SHT31;67861;51.966;5.672;2023-12-14T15:58:21;10.4;60.7
78571;SHT31;67861;51.966;5.672;2023-12-14T16:00:49;10.4;60.6
78571;SHT31;67861;51.966;5.672;2023-12-14T16:03:18;10.4;60.6
78571;SHT31;67861;51.966;5.672;2023-12-14T16:05:47;10.4;61.2
78571;SHT31;67861;51.966;5.672;2023-12-14T16:08:15;10.4;61.1
78571;SHT31;67861;51.966;5.672;2023-12-14T16:10:44;10.4;61.3
78571;SHT31;67861;51.966;5.672;2023-12-14T16:13:14;10.4;60.8
78571;SHT31;67861;51.966;5.672;2023-12-14T16:15:42;10.5;60.9
78571;SHT31;67861;51.966;5.672;2023-12-14T16:18:11;10.5;61.0
78571;SHT31;67861;51.966;5.672;2023-12-14T16:20:39;10.5;61.0
78571;SHT31;67861;51.966;5.672;2023-12-14T16:23:08;10.5;61.0
78571;SHT31;67861;51.966;5.672;2023-12-14T16:25:37;10.5;61.1
78571;SHT31;67861;51.966;5.672;2023-12-14T16:28:05;10.5;61.0